sensor_id;sensor_type;location;lat;lon;timestamp;pressure;altitude;pressure_sealevel;temperature;humidity
30897;BME280;64229;52.246;21.054;2023-01-06T00:00:07;100598.50;;;2.33;84.98
30897;BME280;64229;52.246;21.054;2023-01-06T00:02:32;100599.53;;;2.46;84.02
30897;BME280;64229;52.246;21.054;2023-01-06T00:04:58;100614.72;;;2.50;83.37
30897;BME280;64229;52.246;21.054;2023-01-06T00:07:23;100623.03;;;2.47;82.83
30897;BME280;64229;52.246;21.054;2023-01-06T00:09:49;100616.13;;;2.40;82.63
30897;BME280;64229;52.246;21.054;2023-01-06T00:12:14;100618.56;;;2.35;83.14
30897;BME280;64229;52.246;21.054;2023-01-06T00:14:40;100624.44;;;2.30;83.26
30897;BME280;64229;52.246;21.054;2023-01-06T00:17:07;100618.75;;;2.20;83.38
30897;BME280;64229;52.246;21.054;2023-01-06T00:19:33;100626.69;;;2.26;83.71
30897;BME280;64229;52.246;21.054;2023-01-06T00:21:58;100634.16;;;2.29;83.02
30897;BME280;64229;52.246;21.054;2023-01-06T00:24:24;100646.09;;;2.32;82.69
30897;BME280;64229;52.246;21.054;2023-01-06T00:26:49;100654.59;;;2.21;83.40
30897;BME280;64229;52.246;21.054;2023-01-06T00:29:15;100653.19;;;2.18;83.32
30897;BME280;64229;52.246;21.054;2023-01-06T00:31:40;100661.50;;;2.15;83.05
30897;BME280;64229;52.246;21.054;2023-01-06T00:34:06;100661.06;;;2.12;83.79
30897;BME280;64229;52.246;21.054;2023-01-06T00:36:31;100671.84;;;2.17;84.17
30897;BME280;64229;52.246;21.054;2023-01-06T00:38:57;100666.97;;;2.14;83.85
30897;BME280;64229;52.246;21.054;2023-01-06T00:41:22;100675.47;;;2.09;84.21
30897;BME280;64229;52.246;21.054;2023-01-06T00:44:07;100693.47;;;2.12;83.55
30897;BME280;64229;52.246;21.054;2023-01-06T00:46:33;100690.47;;;2.22;83.77
30897;BME280;64229;52.246;21.054;2023-01-06T00:49:00;100700.00;;;2.23;82.98
30897;BME280;64229;52.246;21.054;2023-01-06T00:51:27;100694.31;;;2.19;84.02
30897;BME280;64229;52.246;21.054;2023-01-06T00:53:53;100704.25;;;2.17;83.69
30897;BME280;64229;52.246;21.054;2023-01-06T00:56:18;100713.59;;;2.26;83.32
30897;BME280;64229;52.246;21.054;2023-01-06T00:58:44;100711.56;;;2.28;83.15
30897;BME280;64229;52.246;21.054;2023-01-06T01:01:10;100724.13;;;2.26;83.52
30897;BME280;64229;52.246;21.054;2023-01-06T01:03:37;100723.91;;;2.21;84.00
30897;BME280;64229;52.246;21.054;2023-01-06T01:06:05;100719.88;;;2.25;83.72
30897;BME280;64229;52.246;21.054;2023-01-06T01:08:31;100721.47;;;2.33;83.48
30897;BME280;64229;52.246;21.054;2023-01-06T01:11:05;100724.13;;;2.26;84.24
30897;BME280;64229;52.246;21.054;2023-01-06T01:13:31;100710.28;;;2.11;83.76
30897;BME280;64229;52.246;21.054;2023-01-06T01:16:03;100731.22;;;2.26;83.20
30897;BME280;64229;52.246;21.054;2023-01-06T01:18:28;100741.53;;;2.21;82.33
30897;BME280;64229;52.246;21.054;2023-01-06T01:20:54;100745.38;;;2.18;83.52
30897;BME280;64229;52.246;21.054;2023-01-06T01:23:19;100763.84;;;2.25;82.51
30897;BME280;64229;52.246;21.054;2023-01-06T01:25:44;100757.19;;;2.36;81.63
30897;BME280;64229;52.246;21.054;2023-01-06T01:28:10;100749.88;;;2.38;81.74
30897;BME280;64229;52.246;21.054;2023-01-06T01:30:35;100764.84;;;2.24;81.44
30897;BME280;64229;52.246;21.054;2023-01-06T01:33:01;100777.69;;;1.92;83.22
30897;BME280;64229;52.246;21.054;2023-01-06T01:35:26;100773.84;;;2.01;83.72
30897;BME280;64229;52.246;21.054;2023-01-06T01:37:52;100779.34;;;2.07;83.93
30897;BME280;64229;52.246;21.054;2023-01-06T01:40:17;100790.75;;;2.14;82.67
30897;BME280;64229;52.246;21.054;2023-01-06T01:42:42;100791.75;;;2.19;81.61
30897;BME280;64229;52.246;21.054;2023-01-06T01:45:21;100798.66;;;2.14;81.53
30897;BME280;64229;52.246;21.054;2023-01-06T01:47:54;100797.84;;;2.13;81.50
30897;BME280;64229;52.246;21.054;2023-01-06T01:52:52;100811.97;;;2.06;82.04
30897;BME280;64229;52.246;21.054;2023-01-06T01:55:19;100818.66;;;2.08;82.08
30897;BME280;64229;52.246;21.054;2023-01-06T01:57:55;100815.97;;;2.01;81.63
30897;BME280;64229;52.246;21.054;2023-01-06T02:00:21;100813.53;;;2.00;82.66
30897;BME280;64229;52.246;21.054;2023-01-06T02:02:47;100817.66;;;2.09;82.84
30897;BME280;64229;52.246;21.054;2023-01-06T02:05:17;100825.13;;;2.06;82.70
30897;BME280;64229;52.246;21.054;2023-01-06T02:07:45;100826.97;;;2.05;82.16
30897;BME280;64229;52.246;21.054;2023-01-06T02:10:14;100842.34;;;2.08;82.01
30897;BME280;64229;52.246;21.054;2023-01-06T02:12:41;100837.09;;;2.08;81.39
30897;BME280;64229;52.246;21.054;2023-01-06T02:15:33;100843.31;;;2.00;82.01
30897;BME280;64229;52.246;21.054;2023-01-06T02:37:10;100898.25;;;2.10;81.83
30897;BME280;64229;52.246;21.054;2023-01-06T02:40:11;100898.84;;;2.06;81.66
30897;BME280;64229;52.246;21.054;2023-01-06T02:42:51;100894.56;;;1.98;82.56
30897;BME280;64229;52.246;21.054;2023-01-06T02:48:15;100911.91;;;1.86;81.47
30897;BME280;64229;52.246;21.054;2023-01-06T02:50:54;100917.81;;;1.94;79.24
30897;BME280;64229;52.246;21.054;2023-01-06T02:53:24;100926.28;;;1.90;80.22
30897;BME280;64229;52.246;21.054;2023-01-06T02:55:56;100928.56;;;1.93;79.07
30897;BME280;64229;52.246;21.054;2023-01-06T03:01:38;100938.81;;;1.81;74.86
30897;BME280;64229;52.246;21.054;2023-01-06T03:04:12;100939.75;;;1.73;75.50
30897;BME280;64229;52.246;21.054;2023-01-06T03:06:41;100934.34;;;1.82;74.68
30897;BME280;64229;52.246;21.054;2023-01-06T03:09:11;100937.34;;;1.79;74.46
30897;BME280;64229;52.246;21.054;2023-01-06T03:11:39;100939.13;;;1.71;74.11
30897;BME280;64229;52.246;21.054;2023-01-06T03:14:14;100943.09;;;1.61;74.01
30897;BME280;64229;52.246;21.054;2023-01-06T03:16:43;100943.25;;;1.59;74.81
30897;BME280;64229;52.246;21.054;2023-01-06T03:19:08;100951.00;;;1.61;74.31
30897;BME280;64229;52.246;21.054;2023-01-06T03:21:37;100949.03;;;1.48;75.13
30897;BME280;64229;52.246;21.054;2023-01-06T03:24:06;100954.97;;;1.57;75.75
30897;BME280;64229;52.246;21.054;2023-01-06T03:26:33;100967.44;;;1.69;74.94
30897;BME280;64229;52.246;21.054;2023-01-06T03:29:00;100968.69;;;1.73;75.35
30897;BME280;64229;52.246;21.054;2023-01-06T03:37:25;100958.41;;;1.79;76.17
30897;BME280;64229;52.246;21.054;2023-01-06T03:40:11;100971.38;;;1.80;76.51
30897;BME280;64229;52.246;21.054;2023-01-06T03:42:46;100969.53;;;1.81;76.39
30897;BME280;64229;52.246;21.054;2023-01-06T03:54:12;100989.56;;;1.75;77.56
30897;BME280;64229;52.246;21.054;2023-01-06T03:56:50;100992.41;;;1.80;77.32
30897;BME280;64229;52.246;21.054;2023-01-06T03:59:21;100994.63;;;1.77;77.14
30897;BME280;64229;52.246;21.054;2023-01-06T04:01:48;100994.56;;;1.70;78.18
30897;BME280;64229;52.246;21.054;2023-01-06T04:04:15;100999.28;;;1.74;77.82
30897;BME280;64229;52.246;21.054;2023-01-06T04:06:41;100996.50;;;1.83;77.18
30897;BME280;64229;52.246;21.054;2023-01-06T04:09:07;100997.06;;;1.78;78.62
30897;BME280;64229;52.246;21.054;2023-01-06T04:11:32;101004.03;;;1.86;78.19
30897;BME280;64229;52.246;21.054;2023-01-06T04:14:16;101013.97;;;1.90;78.19
30897;BME280;64229;52.246;21.054;2023-01-06T04:16:42;101018.19;;;1.85;78.39
30897;BME280;64229;52.246;21.054;2023-01-06T04:19:07;101018.63;;;1.88;79.06
30897;BME280;64229;52.246;21.054;2023-01-06T04:21:33;101015.84;;;1.96;78.61
30897;BME280;64229;52.246;21.054;2023-01-06T04:23:59;101018.09;;;1.99;78.55
30897;BME280;64229;52.246;21.054;2023-01-06T04:26:24;101015.75;;;2.11;78.04
30897;BME280;64229;52.246;21.054;2023-01-06T04:28:50;101018.03;;;2.14;77.99
30897;BME280;64229;52.246;21.054;2023-01-06T04:31:15;101017.03;;;2.15;77.66
30897;BME280;64229;52.246;21.054;2023-01-06T04:33:41;101025.75;;;2.22;77.76
30897;BME280;64229;52.246;21.054;2023-01-06T04:36:07;101017.03;;;2.15;77.70
30897;BME280;64229;52.246;21.054;2023-01-06T04:38:33;101021.19;;;2.03;77.66
30897;BME280;64229;52.246;21.054;2023-01-06T04:40:59;101009.19;;;2.00;78.76
30897;BME280;64229;52.246;21.054;2023-01-06T04:43:24;101012.97;;;2.19;77.62
30897;BME280;64229;52.246;21.054;2023-01-06T04:45:50;101017.44;;;2.19;77.73
30897;BME280;64229;52.246;21.054;2023-01-06T04:48:15;101013.59;;;2.21;77.23
30897;BME280;64229;52.246;21.054;2023-01-06T04:50:40;101018.06;;;2.21;77.23
30897;BME280;64229;52.246;21.054;2023-01-06T04:53:06;101017.78;;;2.09;77.13
30897;BME280;64229;52.246;21.054;2023-01-06T04:55:32;101010.69;;;2.10;77.38
30897;BME280;64229;52.246;21.054;2023-01-06T04:57:57;101014.91;;;2.04;77.89
30897;BME280;64229;52.246;21.054;2023-01-06T05:00:23;101009.88;;;2.09;78.83
30897;BME280;64229;52.246;21.054;2023-01-06T05:02:49;101011.50;;;2.10;78.83
30897;BME280;64229;52.246;21.054;2023-01-06T05:05:15;101011.34;;;2.18;78.20
30897;BME280;64229;52.246;21.054;2023-01-06T05:07:41;101011.34;;;2.18;79.11
30897;BME280;64229;52.246;21.054;2023-01-06T05:10:08;101014.19;;;2.17;77.05
30897;BME280;64229;52.246;21.054;2023-01-06T05:12:34;101009.66;;;2.11;77.67
30897;BME280;64229;52.246;21.054;2023-01-06T05:15:00;101009.66;;;2.11;77.12
30897;BME280;64229;52.246;21.054;2023-01-06T05:17:26;101019.16;;;2.05;77.22
30897;BME280;64229;52.246;21.054;2023-01-06T05:19:52;101026.25;;;2.05;76.81
30897;BME280;64229;52.246;21.054;2023-01-06T05:22:17;101017.25;;;1.92;77.91
30897;BME280;64229;52.246;21.054;2023-01-06T05:24:43;101025.16;;;1.92;78.47
30897;BME280;64229;52.246;21.054;2023-01-06T05:27:08;101035.69;;;1.92;78.16
30897;BME280;64229;52.246;21.054;2023-01-06T05:29:34;101047.19;;;1.91;78.13
30897;BME280;64229;52.246;21.054;2023-01-06T05:32:00;101045.00;;;1.95;78.63
30897;BME280;64229;52.246;21.054;2023-01-06T05:34:25;101043.81;;;1.97;77.31
30897;BME280;64229;52.246;21.054;2023-01-06T05:36:51;101058.97;;;1.95;76.98
30897;BME280;64229;52.246;21.054;2023-01-06T05:39:16;101063.44;;;1.95;76.92
30897;BME280;64229;52.246;21.054;2023-01-06T05:41:42;101061.22;;;1.98;75.36
30897;BME280;64229;52.246;21.054;2023-01-06T05:44:07;101055.66;;;1.87;75.54
30897;BME280;64229;52.246;21.054;2023-01-06T05:46:33;101051.13;;;1.81;75.48
30897;BME280;64229;52.246;21.054;2023-01-06T05:48:59;101057.16;;;1.74;76.25
30897;BME280;64229;52.246;21.054;2023-01-06T05:51:25;101062.25;;;1.76;77.57
30897;BME280;64229;52.246;21.054;2023-01-06T05:53:51;101068.81;;;1.87;75.65
30897;BME280;64229;52.246;21.054;2023-01-06T05:56:18;101071.47;;;1.87;75.30
30897;BME280;64229;52.246;21.054;2023-01-06T05:58:49;101073.78;;;1.75;75.64
30897;BME280;64229;52.246;21.054;2023-01-06T06:01:27;101079.34;;;1.65;76.89
30897;BME280;64229;52.246;21.054;2023-01-06T06:03:53;101079.34;;;1.65;76.39
30897;BME280;64229;52.246;21.054;2023-01-06T06:06:20;101089.16;;;1.57;77.46
30897;BME280;64229;52.246;21.054;2023-01-06T06:08:46;101079.84;;;1.54;76.64
30897;BME280;64229;52.246;21.054;2023-01-06T06:11:13;101091.88;;;1.63;77.09
30897;BME280;64229;52.246;21.054;2023-01-06T06:13:54;101097.19;;;1.70;76.89
30897;BME280;64229;52.246;21.054;2023-01-06T06:16:25;101101.28;;;1.72;76.56
30897;BME280;64229;52.246;21.054;2023-01-06T06:18:52;101104.59;;;1.60;76.71
30897;BME280;64229;52.246;21.054;2023-01-06T06:21:21;101104.91;;;1.50;77.23
30897;BME280;64229;52.246;21.054;2023-01-06T06:23:47;101100.44;;;1.51;77.37
30897;BME280;64229;52.246;21.054;2023-01-06T06:26:13;101101.50;;;1.56;77.56
30897;BME280;64229;52.246;21.054;2023-01-06T06:28:40;101104.59;;;1.60;77.16
30897;BME280;64229;52.246;21.054;2023-01-06T06:31:22;101112.78;;;1.50;78.37
30897;BME280;64229;52.246;21.054;2023-01-06T06:33:52;101119.06;;;1.49;77.03
30897;BME280;64229;52.246;21.054;2023-01-06T06:36:18;101117.22;;;1.50;77.19
30897;BME280;64229;52.246;21.054;2023-01-06T06:38:45;101122.84;;;1.47;78.43
30897;BME280;64229;52.246;21.054;2023-01-06T06:41:11;101120.13;;;1.55;77.53
30897;BME280;64229;52.246;21.054;2023-01-06T06:43:37;101118.16;;;1.42;78.75
30897;BME280;64229;52.246;21.054;2023-01-06T06:46:03;101133.84;;;1.35;78.53
30897;BME280;64229;52.246;21.054;2023-01-06T06:48:29;101135.28;;;1.38;78.85
30897;BME280;64229;52.246;21.054;2023-01-06T06:50:59;101155.50;;;1.52;78.72
30897;BME280;64229;52.246;21.054;2023-01-06T06:53:25;101157.03;;;1.61;79.00
30897;BME280;64229;52.246;21.054;2023-01-06T06:55:51;101161.84;;;1.58;77.42
30897;BME280;64229;52.246;21.054;2023-01-06T06:58:17;101173.00;;;1.60;77.05
30897;BME280;64229;52.246;21.054;2023-01-06T07:00:42;101158.50;;;1.49;77.33
30897;BME280;64229;52.246;21.054;2023-01-06T07:03:08;101175.00;;;1.58;76.52
30897;BME280;64229;52.246;21.054;2023-01-06T07:05:33;101173.66;;;1.47;76.48
30897;BME280;64229;52.246;21.054;2023-01-06T07:07:59;101173.19;;;1.43;77.17
30897;BME280;64229;52.246;21.054;2023-01-06T07:10:24;101172.91;;;1.53;77.96
30897;BME280;64229;52.246;21.054;2023-01-06T07:12:50;101170.00;;;1.63;76.52
30897;BME280;64229;52.246;21.054;2023-01-06T07:15:15;101179.72;;;1.62;77.32
30897;BME280;64229;52.246;21.054;2023-01-06T07:17:41;101175.28;;;1.63;76.63
30897;BME280;64229;52.246;21.054;2023-01-06T07:20:07;101182.88;;;1.72;76.64
30897;BME280;64229;52.246;21.054;2023-01-06T07:22:36;101182.88;;;1.72;76.52
30897;BME280;64229;52.246;21.054;2023-01-06T07:25:02;101181.78;;;1.67;77.34
30897;BME280;64229;52.246;21.054;2023-01-06T07:27:28;101188.13;;;1.72;76.29
30897;BME280;64229;52.246;21.054;2023-01-06T07:29:53;101194.84;;;1.75;75.88
30897;BME280;64229;52.246;21.054;2023-01-06T07:32:19;101187.13;;;1.73;75.77
30897;BME280;64229;52.246;21.054;2023-01-06T07:34:44;101175.91;;;1.65;75.31
30897;BME280;64229;52.246;21.054;2023-01-06T07:37:10;101172.88;;;1.68;76.11
30897;BME280;64229;52.246;21.054;2023-01-06T07:39:35;101175.91;;;1.65;75.19
30897;BME280;64229;52.246;21.054;2023-01-06T07:42:01;101176.53;;;1.67;75.60
30897;BME280;64229;52.246;21.054;2023-01-06T07:44:26;101178.16;;;1.68;75.47
30897;BME280;64229;52.246;21.054;2023-01-06T07:46:51;101171.25;;;1.67;75.38
30897;BME280;64229;52.246;21.054;2023-01-06T07:49:17;101178.97;;;1.68;75.92
30897;BME280;64229;52.246;21.054;2023-01-06T07:51:42;101179.72;;;1.62;75.08
30897;BME280;64229;52.246;21.054;2023-01-06T07:54:08;101173.25;;;1.65;75.29
30897;BME280;64229;52.246;21.054;2023-01-06T07:56:33;101174.25;;;1.64;76.07
30897;BME280;64229;52.246;21.054;2023-01-06T07:58:59;101184.69;;;1.72;74.04
30897;BME280;64229;52.246;21.054;2023-01-06T08:01:24;101187.31;;;1.72;74.85
30897;BME280;64229;52.246;21.054;2023-01-06T08:03:50;101193.28;;;1.81;74.20
30897;BME280;64229;52.246;21.054;2023-01-06T08:06:15;101184.75;;;1.79;75.27
30897;BME280;64229;52.246;21.054;2023-01-06T08:08:41;101185.84;;;1.84;74.63
30897;BME280;64229;52.246;21.054;2023-01-06T08:11:08;101199.72;;;1.78;74.25
30897;BME280;64229;52.246;21.054;2023-01-06T08:13:35;101198.91;;;1.78;74.93
30897;BME280;64229;52.246;21.054;2023-01-06T08:16:05;101193.13;;;1.82;75.72
30897;BME280;64229;52.246;21.054;2023-01-06T08:18:31;101189.59;;;1.75;74.36
30897;BME280;64229;52.246;21.054;2023-01-06T08:21:03;101198.28;;;1.76;74.73
30897;BME280;64229;52.246;21.054;2023-01-06T08:23:29;101208.19;;;1.73;74.65
30897;BME280;64229;52.246;21.054;2023-01-06T08:26:03;101207.19;;;1.74;74.92
30897;BME280;64229;52.246;21.054;2023-01-06T08:28:29;101201.72;;;1.76;75.68
30897;BME280;64229;52.246;21.054;2023-01-06T08:30:54;101194.22;;;1.73;74.93
30897;BME280;64229;52.246;21.054;2023-01-06T08:33:20;101205.53;;;1.88;74.72
30897;BME280;64229;52.246;21.054;2023-01-06T08:35:48;101199.88;;;1.91;73.79
30897;BME280;64229;52.246;21.054;2023-01-06T08:38:14;101198.00;;;1.85;74.36
30897;BME280;64229;52.246;21.054;2023-01-06T08:40:40;101206.63;;;1.79;74.70
30897;BME280;64229;52.246;21.054;2023-01-06T08:43:05;101215.25;;;1.88;75.54
30897;BME280;64229;52.246;21.054;2023-01-06T08:45:31;101214.59;;;1.86;75.54
30897;BME280;64229;52.246;21.054;2023-01-06T08:47:56;101220.94;;;1.91;74.86
30897;BME280;64229;52.246;21.054;2023-01-06T08:50:22;101224.84;;;1.95;74.72
30897;BME280;64229;52.246;21.054;2023-01-06T08:52:47;101207.19;;;2.11;73.83
30897;BME280;64229;52.246;21.054;2023-01-06T08:55:13;101213.09;;;2.13;74.44
30897;BME280;64229;52.246;21.054;2023-01-06T08:57:38;101214.47;;;2.09;75.29
30897;BME280;64229;52.246;21.054;2023-01-06T09:00:05;101199.03;;;2.06;74.95
30897;BME280;64229;52.246;21.054;2023-01-06T09:02:31;101217.16;;;2.15;73.79
30897;BME280;64229;52.246;21.054;2023-01-06T09:04:57;101212.69;;;1.94;73.32
30897;BME280;64229;52.246;21.054;2023-01-06T09:07:22;101221.47;;;2.01;73.63
30897;BME280;64229;52.246;21.054;2023-01-06T09:09:48;101220.66;;;2.01;74.27
30897;BME280;64229;52.246;21.054;2023-01-06T09:12:13;101217.13;;;1.94;73.85
30897;BME280;64229;52.246;21.054;2023-01-06T09:14:39;101214.69;;;1.92;74.48
30897;BME280;64229;52.246;21.054;2023-01-06T09:17:04;101211.63;;;1.74;74.00
30897;BME280;64229;52.246;21.054;2023-01-06T09:19:30;101212.56;;;1.52;73.84
30897;BME280;64229;52.246;21.054;2023-01-06T09:21:55;101214.56;;;1.64;73.67
30897;BME280;64229;52.246;21.054;2023-01-06T09:24:21;101209.63;;;1.76;74.03
30897;BME280;64229;52.246;21.054;2023-01-06T09:26:46;101217.13;;;1.94;72.72
30897;BME280;64229;52.246;21.054;2023-01-06T09:29:12;101208.13;;;2.03;73.64
30897;BME280;64229;52.246;21.054;2023-01-06T09:31:37;101209.81;;;2.11;71.94
30897;BME280;64229;52.246;21.054;2023-01-06T09:34:03;101203.09;;;2.08;73.04
30897;BME280;64229;52.246;21.054;2023-01-06T09:36:28;101205.00;;;2.14;73.29
30897;BME280;64229;52.246;21.054;2023-01-06T09:38:54;101217.53;;;2.12;71.96
30897;BME280;64229;52.246;21.054;2023-01-06T09:44:10;101193.59;;;2.07;72.69
30897;BME280;64229;52.246;21.054;2023-01-06T09:46:39;101202.22;;;2.01;72.82
30897;BME280;64229;52.246;21.054;2023-01-06T09:51:32;101201.28;;;2.09;72.73
30897;BME280;64229;52.246;21.054;2023-01-06T09:54:08;101202.09;;;2.09;71.63
30897;BME280;64229;52.246;21.054;2023-01-06T09:56:36;101211.28;;;2.13;70.86
30897;BME280;64229;52.246;21.054;2023-01-06T09:59:12;101203.81;;;2.17;70.39
30897;BME280;64229;52.246;21.054;2023-01-06T10:01:44;101202.44;;;2.21;70.29
30897;BME280;64229;52.246;21.054;2023-01-06T10:04:16;101195.53;;;2.20;69.60
30897;BME280;64229;52.246;21.054;2023-01-06T10:07:07;101188.81;;;2.17;70.23
30897;BME280;64229;52.246;21.054;2023-01-06T10:12:40;101192.31;;;1.82;71.02
30897;BME280;64229;52.246;21.054;2023-01-06T10:15:13;101194.41;;;2.08;71.03
30897;BME280;64229;52.246;21.054;2023-01-06T10:18:17;101195.09;;;2.16;71.34
30897;BME280;64229;52.246;21.054;2023-01-06T10:28:43;101173.88;;;1.67;72.28
30897;BME280;64229;52.246;21.054;2023-01-06T10:31:14;101176.47;;;1.60;73.57
30897;BME280;64229;52.246;21.054;2023-01-06T10:33:52;101168.19;;;1.63;74.18
30897;BME280;64229;52.246;21.054;2023-01-06T10:36:23;101164.91;;;1.97;72.94
30897;BME280;64229;52.246;21.054;2023-01-06T10:38:52;101163.59;;;1.87;73.73
30897;BME280;64229;52.246;21.054;2023-01-06T10:41:26;101167.66;;;1.89;74.17
30897;BME280;64229;52.246;21.054;2023-01-06T10:43:57;101164.66;;;1.71;74.72
30897;BME280;64229;52.246;21.054;2023-01-06T10:46:29;101164.19;;;1.67;74.31
30897;BME280;64229;52.246;21.054;2023-01-06T10:48:56;101158.38;;;1.72;74.26
30897;BME280;64229;52.246;21.054;2023-01-06T10:53:56;101159.25;;;1.79;74.66
30897;BME280;64229;52.246;21.054;2023-01-06T10:56:27;101152.63;;;1.83;74.37
30897;BME280;64229;52.246;21.054;2023-01-06T10:58:56;101151.66;;;1.91;73.09
30897;BME280;64229;52.246;21.054;2023-01-06T11:01:25;101153.94;;;1.94;72.58
30897;BME280;64229;52.246;21.054;2023-01-06T11:04:08;101154.50;;;1.53;73.07
30897;BME280;64229;52.246;21.054;2023-01-06T11:06:59;101158.22;;;1.44;72.86
30897;BME280;64229;52.246;21.054;2023-01-06T11:09:38;101156.06;;;1.33;73.78
30897;BME280;64229;52.246;21.054;2023-01-06T11:12:19;101148.38;;;1.31;74.51
30897;BME280;64229;52.246;21.054;2023-01-06T11:15:00;101136.03;;;1.32;74.52
30897;BME280;64229;52.246;21.054;2023-01-06T11:17:27;101139.34;;;1.55;74.22
30897;BME280;64229;52.246;21.054;2023-01-06T11:20:26;101137.13;;;1.73;73.59
30897;BME280;64229;52.246;21.054;2023-01-06T11:22:52;101130.56;;;1.84;73.80
30897;BME280;64229;52.246;21.054;2023-01-06T11:27:44;101114.59;;;1.50;74.37
30897;BME280;64229;52.246;21.054;2023-01-06T11:30:27;101128.63;;;1.71;73.23
30897;BME280;64229;52.246;21.054;2023-01-06T11:32:53;101125.16;;;1.71;73.55
30897;BME280;64229;52.246;21.054;2023-01-06T11:35:21;101127.22;;;1.76;73.50
30897;BME280;64229;52.246;21.054;2023-01-06T11:37:56;101121.28;;;1.88;73.25
30897;BME280;64229;52.246;21.054;2023-01-06T11:40:31;101123.38;;;1.93;73.60
30897;BME280;64229;52.246;21.054;2023-01-06T11:43:01;101119.09;;;2.13;72.73
30897;BME280;64229;52.246;21.054;2023-01-06T11:45:41;101112.84;;;2.14;73.17
30897;BME280;64229;52.246;21.054;2023-01-06T11:48:15;101111.44;;;2.18;72.97
30897;BME280;64229;52.246;21.054;2023-01-06T11:50:50;101108.06;;;2.24;71.84
30897;BME280;64229;52.246;21.054;2023-01-06T11:53:16;101106.03;;;2.26;72.01
30897;BME280;64229;52.246;21.054;2023-01-06T11:55:54;101107.81;;;1.98;73.28
30897;BME280;64229;52.246;21.054;2023-01-06T11:58:47;101096.22;;;1.71;74.05
30897;BME280;64229;52.246;21.054;2023-01-06T12:01:30;101098.06;;;1.56;75.24
30897;BME280;64229;52.246;21.054;2023-01-06T12:04:11;101103.16;;;1.79;74.52
30897;BME280;64229;52.246;21.054;2023-01-06T12:06:40;101107.41;;;1.58;75.16
30897;BME280;64229;52.246;21.054;2023-01-06T12:09:31;101106.91;;;1.33;75.83
30897;BME280;64229;52.246;21.054;2023-01-06T12:12:04;101100.75;;;1.26;76.35
30897;BME280;64229;52.246;21.054;2023-01-06T12:14:37;101110.16;;;1.35;76.20
30897;BME280;64229;52.246;21.054;2023-01-06T12:17:17;101103.38;;;1.41;76.36
30897;BME280;64229;52.246;21.054;2023-01-06T12:19:56;101093.88;;;1.61;75.40
30897;BME280;64229;52.246;21.054;2023-01-06T12:25:01;101096.34;;;1.84;74.04
30897;BME280;64229;52.246;21.054;2023-01-06T12:27:41;101086.66;;;1.70;74.91
30897;BME280;64229;52.246;21.054;2023-01-06T12:30:15;101088.47;;;1.69;74.65
30897;BME280;64229;52.246;21.054;2023-01-06T12:32:44;101091.28;;;1.83;74.61
30897;BME280;64229;52.246;21.054;2023-01-06T12:35:16;101085.41;;;2.09;73.47
30897;BME280;64229;52.246;21.054;2023-01-06T12:37:57;101090.03;;;2.28;73.44
30897;BME280;64229;52.246;21.054;2023-01-06T12:40:42;101088.94;;;2.44;72.84
30897;BME280;64229;52.246;21.054;2023-01-06T12:43:17;101087.63;;;2.33;72.12
30897;BME280;64229;52.246;21.054;2023-01-06T12:46:07;101069.72;;;2.22;72.88
30897;BME280;64229;52.246;21.054;2023-01-06T12:48:39;101082.63;;;2.38;73.20
30897;BME280;64229;52.246;21.054;2023-01-06T12:59:48;101075.50;;;2.11;73.26
30897;BME280;64229;52.246;21.054;2023-01-06T13:10:30;101093.38;;;2.37;72.62
30897;BME280;64229;52.246;21.054;2023-01-06T13:15:41;101085.97;;;2.25;72.82
30897;BME280;64229;52.246;21.054;2023-01-06T13:18:59;101082.28;;;1.98;74.23
30897;BME280;64229;52.246;21.054;2023-01-06T13:21:06;101079.22;;;1.95;74.48
30897;BME280;64229;52.246;21.054;2023-01-06T13:37:59;101056.84;;;2.06;75.72
30897;BME280;64229;52.246;21.054;2023-01-06T13:40:31;101057.28;;;2.09;75.24
30897;BME280;64229;52.246;21.054;2023-01-06T13:43:05;101059.84;;;2.24;74.80
30897;BME280;64229;52.246;21.054;2023-01-06T13:45:38;101064.09;;;2.25;75.04
30897;BME280;64229;52.246;21.054;2023-01-06T13:48:06;101056.38;;;2.23;75.18
30897;BME280;64229;52.246;21.054;2023-01-06T13:50:36;101044.84;;;2.24;75.12
30897;BME280;64229;52.246;21.054;2023-01-06T13:53:04;101039.28;;;1.91;75.44
30897;BME280;64229;52.246;21.054;2023-01-06T13:55:32;101029.09;;;1.60;77.39
30897;BME280;64229;52.246;21.054;2023-01-06T14:01:10;101020.19;;;1.04;80.75
30897;BME280;64229;52.246;21.054;2023-01-06T14:03:38;101016.22;;;0.93;81.04
30897;BME280;64229;52.246;21.054;2023-01-06T14:06:04;101015.69;;;0.83;80.96
30897;BME280;64229;52.246;21.054;2023-01-06T14:08:45;101014.34;;;0.87;81.35
30897;BME280;64229;52.246;21.054;2023-01-06T14:11:27;100998.38;;;0.74;81.91
30897;BME280;64229;52.246;21.054;2023-01-06T14:13:56;100999.66;;;0.78;82.11
30897;BME280;64229;52.246;21.054;2023-01-06T14:16:43;101003.53;;;0.82;81.95
30897;BME280;64229;52.246;21.054;2023-01-06T14:19:25;101004.56;;;0.66;82.32
30897;BME280;64229;52.246;21.054;2023-01-06T14:21:53;100996.06;;;0.64;81.91
30897;BME280;64229;52.246;21.054;2023-01-06T14:24:30;100996.31;;;0.69;81.86
30897;BME280;64229;52.246;21.054;2023-01-06T14:27:04;101000.84;;;0.75;81.57
30897;BME280;64229;52.246;21.054;2023-01-06T14:34:57;101007.44;;;0.86;81.26
30897;BME280;64229;52.246;21.054;2023-01-06T14:37:27;101015.78;;;0.90;81.63
30897;BME280;64229;52.246;21.054;2023-01-06T14:39:55;101015.97;;;0.73;81.36
30897;BME280;64229;52.246;21.054;2023-01-06T14:42:28;101024.41;;;0.69;82.24
30897;BME280;64229;52.246;21.054;2023-01-06T14:45:04;101026.38;;;0.81;82.40
30897;BME280;64229;52.246;21.054;2023-01-06T14:47:45;101035.25;;;0.95;81.72
30897;BME280;64229;52.246;21.054;2023-01-06T14:50:22;101039.41;;;1.04;80.90